Time;durP1;ratioP1;P1;durP2;ratioP2;P2;SDS_P1;SDS_P2;PMS_P1;PMS_P2;Temp;Humidity;BMP_temperature;BMP_pressure;BME280_temperature;BME280_humidity;BME280_pressure;Samples;Min_cycle;Max_cycle;Signal;HPM_P1;HPM_P2
2024/04/15 00:00:59;;;;;;;10.47;7.40;;;;;;;;;;13377719;22;20429;-80
2024/04/15 00:06:06;;;;;;;12.67;7.90;;;;;;;;;;13378481;22;20387;-81
2024/04/15 00:11:10;;;;;;;10.73;7.33;;;;;;;;;;13380596;22;20367;-81
2024/04/15 00:16:14;;;;;;;10.65;7.97;;;;;;;;;;13376079;22;20363;-81
2024/04/15 00:21:21;;;;;;;9.82;7.82;;;;;;;;;;13376241;22;20458;-80
2024/04/15 00:26:25;;;;;;;10.50;8.35;;;;;;;;;;13377960;22;20387;-81
2024/04/15 00:31:29;;;;;;;10.95;8.13;;;;;;;;;;13382734;22;20748;-81
2024/04/15 00:36:35;;;;;;;10.82;7.90;;;;;;;;;;13383682;22;20391;-81
2024/04/15 00:41:39;;;;;;;10.68;8.13;;;;;;;;;;13384670;22;20391;-81
2024/04/15 00:46:43;;;;;;;14.65;8.02;;;;;;;;;;13383681;22;20442;-81
2024/04/15 00:51:49;;;;;;;10.38;8.52;;;;;;;;;;13383908;22;20383;-81
2024/04/15 00:56:54;;;;;;;12.73;8.88;;;;;;;;;;13383988;22;20441;-80
2024/04/15 01:01:58;;;;;;;12.70;8.55;;;;;;;;;;13382211;22;20375;-81
2024/04/15 01:07:05;;;;;;;14.25;9.52;;;;;;;;;;13384442;22;20453;-81
2024/04/15 01:12:10;;;;;;;11.50;9.23;;;;;;;;;;13389462;22;20367;-81
2024/04/15 01:17:13;;;;;;;12.40;9.02;;;;;;;;;;13388202;22;21032;-80
2024/04/15 01:22:23;;;;;;;12.75;9.93;;;;;;;;;;13388134;22;20492;-81
2024/04/15 01:27:30;;;;;;;12.20;10.10;;;;;;;;;;13387673;22;20431;-80
2024/04/15 01:32:34;;;;;;;14.30;10.00;;;;;;;;;;13388194;22;20367;-81
2024/04/15 01:37:38;;;;;;;13.20;9.80;;;;;;;;;;13385169;22;20465;-80
2024/04/15 01:42:44;;;;;;;12.43;9.50;;;;;;;;;;13388067;22;20557;-80
2024/04/15 01:47:48;;;;;;;12.52;9.90;;;;;;;;;;13386739;22;20375;-80
2024/04/15 01:52:52;;;;;;;13.30;10.00;;;;;;;;;;13387467;22;20363;-79
2024/04/15 01:57:59;;;;;;;14.00;10.38;;;;;;;;;;13388109;22;20383;-80
2024/04/15 02:03:03;;;;;;;13.30;9.55;;;;;;;;;;13387987;22;20399;-80
2024/04/15 02:08:07;;;;;;;13.35;9.32;;;;;;;;;;13387028;22;20398;-81
2024/04/15 02:13:14;;;;;;;13.70;9.93;;;;;;;;;;13386068;22;20849;-80
2024/04/15 02:18:18;;;;;;;13.80;9.47;;;;;;;;;;13386077;22;20359;-81
2024/04/15 02:23:21;;;;;;;15.77;10.33;;;;;;;;;;13386757;22;20975;-79
2024/04/15 02:28:28;;;;;;;14.20;9.90;;;;;;;;;;13386397;22;20379;-80
2024/04/15 02:33:32;;;;;;;15.33;10.07;;;;;;;;;;13386973;22;20363;-79
2024/04/15 02:38:36;;;;;;;14.52;10.32;;;;;;;;;;13383158;22;20935;-79
2024/04/15 02:43:42;;;;;;;15.73;10.55;;;;;;;;;;13386082;22;20376;-79
2024/04/15 02:48:46;;;;;;;14.70;11.02;;;;;;;;;;13384822;22;20472;-80
2024/04/15 02:53:50;;;;;;;13.50;10.90;;;;;;;;;;13385598;22;20445;-80
2024/04/15 02:58:56;;;;;;;14.43;10.30;;;;;;;;;;13386399;22;20359;-79
2024/04/15 03:04:00;;;;;;;17.85;11.25;;;;;;;;;;13386105;22;20676;-80
2024/04/15 03:09:04;;;;;;;14.55;10.63;;;;;;;;;;13386070;22;20359;-80
2024/04/15 03:14:10;;;;;;;16.52;11.18;;;;;;;;;;13384762;22;20433;-80
2024/04/15 03:19:17;;;;;;;15.93;11.43;;;;;;;;;;13385637;21;20363;-79
2024/04/15 03:24:21;;;;;;;14.33;11.10;;;;;;;;;;13386414;22;20829;-80
2024/04/15 03:29:27;;;;;;;16.88;10.95;;;;;;;;;;13384927;22;20437;-79
2024/04/15 03:34:31;;;;;;;16.77;11.63;;;;;;;;;;13385550;22;20420;-79
2024/04/15 03:39:35;;;;;;;19.55;12.93;;;;;;;;;;13384156;22;20465;-80
2024/04/15 03:44:41;;;;;;;20.42;12.05;;;;;;;;;;13384563;22;20376;-80
2024/04/15 03:49:45;;;;;;;16.70;12.73;;;;;;;;;;13385310;22;20480;-80
2024/04/15 03:54:49;;;;;;;19.03;12.73;;;;;;;;;;13385261;22;20435;-80
2024/04/15 03:59:56;;;;;;;21.00;13.00;;;;;;;;;;13385757;22;20387;-80
2024/04/15 04:05:00;;;;;;;19.80;13.63;;;;;;;;;;13383928;22;20418;-80
2024/04/15 04:10:03;;;;;;;19.97;13.47;;;;;;;;;;13384062;22;20695;-79
2024/04/15 04:15:10;;;;;;;18.98;13.73;;;;;;;;;;13385137;22;20367;-80
2024/04/15 04:20:14;;;;;;;18.63;13.45;;;;;;;;;;13384611;22;20359;-80
2024/04/15 04:25:18;;;;;;;19.95;14.30;;;;;;;;;;13383675;22;20465;-79
2024/04/15 04:30:24;;;;;;;18.75;13.82;;;;;;;;;;13385229;22;20772;-80
2024/04/15 04:35:28;;;;;;;18.73;13.93;;;;;;;;;;13383540;22;20441;-79
2024/04/15 04:40:32;;;;;;;21.55;13.85;;;;;;;;;;13385336;22;20960;-80
2024/04/15 04:45:39;;;;;;;22.87;15.47;;;;;;;;;;13386763;22;20367;-81
2024/04/15 04:50:42;;;;;;;23.08;15.25;;;;;;;;;;13388796;22;20375;-79
2024/04/15 04:55:46;;;;;;;20.13;14.60;;;;;;;;;;13386369;22;20474;-79
2024/04/15 05:00:53;;;;;;;21.77;15.70;;;;;;;;;;13388508;22;20379;-80
2024/04/15 05:05:57;;;;;;;20.80;15.10;;;;;;;;;;13384627;22;20359;-80
2024/04/15 05:11:01;;;;;;;21.53;15.30;;;;;;;;;;13383519;22;20386;-80
2024/04/15 05:16:09;;;;;;;22.02;15.23;;;;;;;;;;13383364;22;20846;-81
2024/04/15 05:21:16;;;;;;;21.20;14.55;;;;;;;;;;13380045;22;20362;-80
2024/04/15 05:26:20;;;;;;;23.60;14.63;;;;;;;;;;13383203;22;20379;-82
2024/04/15 05:31:26;;;;;;;24.52;15.98;;;;;;;;;;13384263;22;20378;-81
2024/04/15 05:36:30;;;;;;;21.90;16.00;;;;;;;;;;13383661;22;20423;-82
2024/04/15 05:41:34;;;;;;;22.70;15.98;;;;;;;;;;13383661;22;20465;-83
2024/04/15 05:46:50;;;;;;;20.73;14.68;;;;;;;;;;13380547;22;20707;-79
2024/04/15 05:51:54;;;;;;;19.13;13.87;;;;;;;;;;13376575;22;20339;-79
2024/04/15 05:56:58;;;;;;;24.13;14.57;;;;;;;;;;13378279;22;20378;-79
2024/04/15 06:02:04;;;;;;;20.85;13.63;;;;;;;;;;13380476;22;20383;-79
2024/04/15 06:07:08;;;;;;;19.77;13.63;;;;;;;;;;13385217;22;20359;-81
2024/04/15 06:12:12;;;;;;;19.07;13.50;;;;;;;;;;13386938;22;20374;-78
2024/04/15 06:17:20;;;;;;;23.23;14.18;;;;;;;;;;13385178;22;20443;-79
2024/04/15 06:22:24;;;;;;;17.80;13.02;;;;;;;;;;13387590;22;20427;-79
2024/04/15 06:27:28;;;;;;;20.13;12.85;;;;;;;;;;13386310;22;20426;-79
2024/04/15 06:32:34;;;;;;;17.63;12.43;;;;;;;;;;13387190;22;20765;-79
2024/04/15 06:37:38;;;;;;;16.80;12.10;;;;;;;;;;13386061;22;21046;-79
2024/04/15 06:42:42;;;;;;;16.88;11.00;;;;;;;;;;13384014;22;20573;-79
2024/04/15 06:47:50;;;;;;;19.67;11.80;;;;;;;;;;13383778;22;20371;-82
2024/04/15 06:52:54;;;;;;;15.40;10.80;;;;;;;;;;13385545;22;20465;-81
2024/04/15 06:57:58;;;;;;;15.83;10.97;;;;;;;;;;13382956;22;20405;-80
2024/04/15 07:03:05;;;;;;;15.50;11.20;;;;;;;;;;13385501;22;20375;-79
2024/04/15 07:08:09;;;;;;;14.85;10.48;;;;;;;;;;13381172;22;20375;-80
2024/04/15 07:13:13;;;;;;;16.15;10.55;;;;;;;;;;13383919;22;21039;-80
2024/04/15 07:18:20;;;;;;;14.88;9.75;;;;;;;;;;13384450;22;20388;-80
2024/04/15 07:23:23;;;;;;;10.85;7.85;;;;;;;;;;13385367;22;20371;-79
2024/04/15 07:28:27;;;;;;;11.02;7.85;;;;;;;;;;13383778;22;20404;-80
2024/04/15 07:33:34;;;;;;;10.90;7.60;;;;;;;;;;13385272;22;20861;-80
2024/04/15 07:38:38;;;;;;;10.25;5.93;;;;;;;;;;13383893;22;20485;-80
2024/04/15 07:43:42;;;;;;;9.10;6.32;;;;;;;;;;13385054;22;20359;-83
2024/04/15 07:48:48;;;;;;;7.25;5.78;;;;;;;;;;13383103;22;21009;-81
2024/04/15 07:53:52;;;;;;;8.13;5.70;;;;;;;;;;13379068;22;20477;-81
2024/04/15 07:58:56;;;;;;;8.63;5.90;;;;;;;;;;13383784;22;20371;-80
2024/04/15 08:04:02;;;;;;;9.73;5.53;;;;;;;;;;13383003;22;20845;-81
2024/04/15 08:09:07;;;;;;;9.70;5.05;;;;;;;;;;13383591;22;20363;-79
2024/04/15 08:14:10;;;;;;;6.22;5.10;;;;;;;;;;13382042;22;21348;-81
2024/04/15 08:19:17;;;;;;;6.97;4.70;;;;;;;;;;13386953;22;20378;-80
2024/04/15 08:24:21;;;;;;;7.03;4.37;;;;;;;;;;13389720;22;20762;-81
2024/04/15 08:29:25;;;;;;;8.17;4.50;;;;;;;;;;13386330;22;20525;-79
2024/04/15 08:34:31;;;;;;;8.43;4.80;;;;;;;;;;13387734;22;20453;-79
2024/04/15 08:39:37;;;;;;;6.03;4.55;;;;;;;;;;13387405;22;20375;-79
2024/04/15 08:44:44;;;;;;;9.05;5.53;;;;;;;;;;13387875;22;20861;-79
2024/04/15 08:49:51;;;;;;;9.13;5.90;;;;;;;;;;13386981;22;20457;-80
2024/04/15 08:54:56;;;;;;;9.27;5.20;;;;;;;;;;13386219;22;20411;-78
2024/04/15 09:00:04;;;;;;;6.57;5.47;;;;;;;;;;13385936;22;20450;-80
2024/04/15 09:05:12;;;;;;;8.52;5.40;;;;;;;;;;13386254;22;20444;-78
2024/04/15 09:10:15;;;;;;;8.68;5.53;;;;;;;;;;13387062;22;20367;-80
2024/04/15 09:15:21;;;;;;;9.10;5.65;;;;;;;;;;13386759;22;20359;-79
2024/04/15 09:20:28;;;;;;;9.23;5.33;;;;;;;;;;13389040;22;20443;-80
2024/04/15 09:25:34;;;;;;;6.63;4.67;;;;;;;;;;13385921;22;20387;-80
2024/04/15 09:30:39;;;;;;;6.68;4.55;;;;;;;;;;13384585;22;20452;-80
2024/04/15 09:35:45;;;;;;;7.17;4.60;;;;;;;;;;13383887;22;20729;-80
2024/04/15 09:40:50;;;;;;;7.85;4.80;;;;;;;;;;13383856;22;20379;-79
2024/04/15 09:45:56;;;;;;;9.15;4.97;;;;;;;;;;13385293;22;20725;-80
2024/04/15 09:51:08;;;;;;;9.20;5.40;;;;;;;;;;13387801;22;20456;-80
2024/04/15 09:56:16;;;;;;;8.50;5.27;;;;;;;;;;13385054;22;20383;-79
2024/04/15 10:01:22;;;;;;;8.02;5.10;;;;;;;;;;13379763;22;20932;-79
2024/04/15 10:06:33;;;;;;;10.15;6.35;;;;;;;;;;13382874;22;20371;-79
2024/04/15 10:11:38;;;;;;;9.50;5.72;;;;;;;;;;13386940;22;21192;-79
2024/04/15 10:16:42;;;;;;;10.40;5.78;;;;;;;;;;13385952;22;20808;-80
2024/04/15 10:21:49;;;;;;;5.75;5.13;;;;;;;;;;13385302;22;20359;-79
2024/04/15 10:26:54;;;;;;;7.78;5.28;;;;;;;;;;13383814;22;20387;-79
2024/04/15 10:31:59;;;;;;;11.73;6.00;;;;;;;;;;13385124;22;20453;-80
2024/04/15 10:37:06;;;;;;;12.00;6.38;;;;;;;;;;13382629;22;20426;-81
2024/04/15 10:42:10;;;;;;;7.20;6.45;;;;;;;;;;13382951;22;20418;-79
2024/04/15 10:47:14;;;;;;;14.17;7.23;;;;;;;;;;13383288;22;20371;-79
2024/04/15 10:52:21;;;;;;;10.17;7.27;;;;;;;;;;13385504;22;20445;-79
2024/04/15 10:57:25;;;;;;;11.02;7.93;;;;;;;;;;13385334;22;20360;-79
2024/04/15 11:02:29;;;;;;;10.52;7.53;;;;;;;;;;13387217;22;20842;-80
2024/04/15 11:07:36;;;;;;;11.27;6.55;;;;;;;;;;13385642;22;20437;-80
2024/04/15 11:12:40;;;;;;;9.23;6.43;;;;;;;;;;13386434;22;20378;-80
2024/04/15 11:17:50;;;;;;;8.17;6.80;;;;;;;;;;13383602;22;20375;-80
2024/04/15 11:22:56;;;;;;;11.35;7.80;;;;;;;;;;13384081;22;20379;-79
2024/04/15 11:28:01;;;;;;;10.63;7.75;;;;;;;;;;13384351;22;20458;-79
2024/04/15 11:33:06;;;;;;;11.17;7.90;;;;;;;;;;13382957;22;20367;-81
2024/04/15 11:38:13;;;;;;;12.83;8.30;;;;;;;;;;13380179;22;20450;-80
2024/04/15 11:43:17;;;;;;;10.93;8.20;;;;;;;;;;13378003;22;20472;-79
2024/04/15 11:48:21;;;;;;;11.23;7.90;;;;;;;;;;13376751;22;21130;-79
2024/04/15 11:53:29;;;;;;;12.98;7.07;;;;;;;;;;13380066;22;20383;-79
2024/04/15 11:58:33;;;;;;;11.50;8.05;;;;;;;;;;13376423;22;20430;-79
2024/04/15 12:03:37;;;;;;;12.25;7.82;;;;;;;;;;13376477;22;20865;-80
2024/04/15 12:08:44;;;;;;;14.18;8.10;;;;;;;;;;13378998;22;20457;-80
2024/04/15 12:13:48;;;;;;;12.57;8.90;;;;;;;;;;13380092;22;20895;-79
2024/04/15 12:18:52;;;;;;;15.17;8.73;;;;;;;;;;13382122;22;20383;-80
2024/04/15 12:23:58;;;;;;;12.83;8.63;;;;;;;;;;13382692;22;20370;-81
2024/04/15 12:29:02;;;;;;;10.90;8.38;;;;;;;;;;13379453;22;20898;-80
2024/04/15 12:34:06;;;;;;;10.98;8.60;;;;;;;;;;13380357;22;20679;-81
2024/04/15 12:39:13;;;;;;;13.27;8.10;;;;;;;;;;13380178;22;20456;-80
2024/04/15 12:44:18;;;;;;;12.23;8.02;;;;;;;;;;13381073;22;20336;-80
2024/04/15 12:49:22;;;;;;;10.00;6.70;;;;;;;;;;13378459;22;20713;-80
2024/04/15 12:54:29;;;;;;;11.95;8.40;;;;;;;;;;13379802;22;20359;-80
2024/04/15 12:59:33;;;;;;;15.05;7.57;;;;;;;;;;13381093;22;21066;-79
2024/04/15 13:04:37;;;;;;;11.53;7.80;;;;;;;;;;13384870;22;20472;-81
2024/04/15 13:09:43;;;;;;;12.60;7.93;;;;;;;;;;13379525;22;20390;-80
2024/04/15 13:14:47;;;;;;;11.07;7.88;;;;;;;;;;13382812;22;20444;-79
2024/04/15 13:19:51;;;;;;;13.60;7.82;;;;;;;;;;13381100;22;20375;-80
2024/04/15 13:24:57;;;;;;;9.87;6.97;;;;;;;;;;13379836;22;20412;-80
2024/04/15 13:30:01;;;;;;;11.95;7.70;;;;;;;;;;13381184;22;20931;-79
2024/04/15 13:35:06;;;;;;;11.17;6.90;;;;;;;;;;13383647;22;20375;-80
2024/04/15 13:40:13;;;;;;;10.55;6.82;;;;;;;;;;13381474;22;20363;-79
2024/04/15 13:45:17;;;;;;;9.95;6.90;;;;;;;;;;13380035;22;20486;-79
2024/04/15 13:50:21;;;;;;;9.93;6.80;;;;;;;;;;13380996;22;20383;-80
2024/04/15 13:55:27;;;;;;;8.20;6.50;;;;;;;;;;13385329;22;20730;-80
2024/04/15 14:00:31;;;;;;;9.63;6.30;;;;;;;;;;13385305;22;20363;-80
2024/04/15 14:05:35;;;;;;;9.63;6.05;;;;;;;;;;13383964;22;20701;-79
2024/04/15 14:10:42;;;;;;;11.75;7.20;;;;;;;;;;13384249;22;20440;-80
2024/04/15 14:15:46;;;;;;;14.40;7.20;;;;;;;;;;13382611;22;20387;-80
2024/04/15 14:20:50;;;;;;;6.60;5.47;;;;;;;;;;13381769;22;20359;-79
2024/04/15 14:25:56;;;;;;;6.20;3.50;;;;;;;;;;13382462;22;20461;-78
2024/04/15 14:31:00;;;;;;;10.65;3.60;;;;;;;;;;13381784;22;20371;-79
2024/04/15 14:36:04;;;;;;;11.23;3.30;;;;;;;;;;13383750;22;20481;-80
2024/04/15 14:41:11;;;;;;;6.40;2.90;;;;;;;;;;13384014;22;20797;-80
2024/04/15 14:46:16;;;;;;;6.47;2.70;;;;;;;;;;13383295;22;20463;-79
2024/04/15 14:51:20;;;;;;;9.32;2.70;;;;;;;;;;13381079;22;20375;-80
2024/04/15 14:56:26;;;;;;;6.43;2.90;;;;;;;;;;13380505;22;20371;-81
2024/04/15 15:01:30;;;;;;;7.13;3.03;;;;;;;;;;13381620;22;20468;-80
2024/04/15 15:06:34;;;;;;;6.50;2.50;;;;;;;;;;13376733;22;20436;-83
2024/04/15 15:11:41;;;;;;;6.32;2.63;;;;;;;;;;13383129;22;20351;-82
2024/04/15 15:16:45;;;;;;;6.00;3.05;;;;;;;;;;13383154;22;20506;-81
2024/04/15 15:21:48;;;;;;;4.95;2.63;;;;;;;;;;13384988;22;20446;-81
2024/04/15 15:26:55;;;;;;;6.90;3.20;;;;;;;;;;13386464;22;20375;-80
2024/04/15 15:31:59;;;;;;;5.60;2.50;;;;;;;;;;13384498;22;20460;-80
2024/04/15 15:37:03;;;;;;;5.38;2.42;;;;;;;;;;13387536;22;20865;-82
2024/04/15 15:42:10;;;;;;;5.83;2.50;;;;;;;;;;13385875;22;20390;-81
2024/04/15 15:47:14;;;;;;;6.18;2.50;;;;;;;;;;13382774;22;20375;-79
2024/04/15 15:52:18;;;;;;;6.03;2.60;;;;;;;;;;13369995;21;20785;-80
2024/04/15 15:57:25;;;;;;;5.57;2.70;;;;;;;;;;13369478;21;20465;-80
2024/04/15 16:02:29;;;;;;;6.73;2.93;;;;;;;;;;13368154;21;20853;-80
2024/04/15 16:07:33;;;;;;;7.70;3.08;;;;;;;;;;13364320;21;21152;-80
2024/04/15 16:12:39;;;;;;;5.65;3.08;;;;;;;;;;13370256;21;20395;-80
2024/04/15 16:17:43;;;;;;;5.20;2.90;;;;;;;;;;13368475;22;21282;-79
2024/04/15 16:22:47;;;;;;;9.03;3.80;;;;;;;;;;13368716;22;20468;-80
2024/04/15 16:27:54;;;;;;;9.68;3.88;;;;;;;;;;13370245;21;21095;-80
2024/04/15 16:32:58;;;;;;;7.35;4.50;;;;;;;;;;13370379;21;20371;-81
2024/04/15 16:38:02;;;;;;;12.33;4.90;;;;;;;;;;13374128;21;20402;-80
2024/04/15 16:43:08;;;;;;;6.83;4.20;;;;;;;;;;13377051;21;20474;-80
2024/04/15 16:48:12;;;;;;;7.88;4.10;;;;;;;;;;13374023;21;20411;-80
2024/04/15 16:53:16;;;;;;;6.47;3.75;;;;;;;;;;13373205;21;20394;-81
2024/04/15 16:58:23;;;;;;;7.17;3.50;;;;;;;;;;13372124;21;20825;-80
2024/04/15 17:03:26;;;;;;;10.23;3.55;;;;;;;;;;13372838;21;21057;-80
2024/04/15 17:08:30;;;;;;;11.00;4.05;;;;;;;;;;13373150;21;20473;-80
2024/04/15 17:13:37;;;;;;;7.70;3.57;;;;;;;;;;13373876;21;20420;-80
2024/04/15 17:18:41;;;;;;;7.65;3.85;;;;;;;;;;13369358;21;20448;-81
2024/04/15 17:23:45;;;;;;;7.90;4.40;;;;;;;;;;13371590;22;20463;-80
2024/04/15 17:28:51;;;;;;;22.13;6.05;;;;;;;;;;13371324;21;20403;-81
2024/04/15 17:33:55;;;;;;;10.75;4.68;;;;;;;;;;13369557;21;20419;-80
2024/04/15 17:38:59;;;;;;;7.63;4.70;;;;;;;;;;13369372;21;20347;-81
2024/04/15 17:44:06;;;;;;;8.93;4.55;;;;;;;;;;13370114;21;20419;-80
2024/04/15 17:49:10;;;;;;;6.95;4.30;;;;;;;;;;13364434;21;20437;-80
2024/04/15 17:54:14;;;;;;;8.33;4.07;;;;;;;;;;13373705;21;20335;-81
2024/04/15 17:59:21;;;;;;;10.52;4.63;;;;;;;;;;13370902;21;20387;-80
2024/04/15 18:04:25;;;;;;;9.37;5.07;;;;;;;;;;13370773;21;20332;-81
2024/04/15 18:09:29;;;;;;;8.55;4.65;;;;;;;;;;13369610;21;20420;-80
2024/04/15 18:14:35;;;;;;;11.80;4.70;;;;;;;;;;13373160;21;20732;-80
2024/04/15 18:19:39;;;;;;;11.00;5.45;;;;;;;;;;13375254;21;20399;-80
2024/04/15 18:24:43;;;;;;;9.60;5.70;;;;;;;;;;13370578;22;20383;-81
2024/04/15 18:29:50;;;;;;;12.38;5.53;;;;;;;;;;13370969;21;20474;-80
2024/04/15 18:34:54;;;;;;;14.20;6.80;;;;;;;;;;13365731;21;20339;-81
2024/04/15 18:39:58;;;;;;;8.33;5.20;;;;;;;;;;13368696;21;20331;-81
2024/04/15 18:45:04;;;;;;;11.33;4.90;;;;;;;;;;13363107;21;20331;-80
2024/04/15 18:50:09;;;;;;;8.00;4.37;;;;;;;;;;13369612;21;20909;-82
2024/04/15 18:55:13;;;;;;;10.93;5.50;;;;;;;;;;13371594;21;20426;-82
2024/04/15 19:00:19;;;;;;;8.30;4.55;;;;;;;;;;13366980;21;20429;-83
2024/04/15 19:05:23;;;;;;;9.02;4.75;;;;;;;;;;13367869;21;20443;-82
2024/04/15 19:10:27;;;;;;;9.07;4.65;;;;;;;;;;13366961;21;20335;-79
2024/04/15 19:15:34;;;;;;;12.45;5.18;;;;;;;;;;13369128;21;20336;-80
2024/04/15 19:20:39;;;;;;;11.32;4.97;;;;;;;;;;13369257;21;20647;-80
2024/04/15 19:25:43;;;;;;;9.90;5.27;;;;;;;;;;13370719;21;20469;-81
2024/04/15 19:30:49;;;;;;;10.53;5.43;;;;;;;;;;13369959;21;20437;-81
2024/04/15 19:35:53;;;;;;;9.55;5.38;;;;;;;;;;13371317;22;20391;-81
2024/04/15 19:40:57;;;;;;;9.80;5.40;;;;;;;;;;13370021;21;20406;-80
2024/04/15 19:46:04;;;;;;;8.77;4.90;;;;;;;;;;13365873;21;20452;-81
2024/04/15 19:51:08;;;;;;;9.63;5.38;;;;;;;;;;13369402;21;20394;-81
2024/04/15 19:56:12;;;;;;;8.03;4.73;;;;;;;;;;13369261;21;20340;-81
2024/04/15 20:01:18;;;;;;;12.13;5.90;;;;;;;;;;13370119;21;20485;-81
2024/04/15 20:06:22;;;;;;;12.88;7.70;;;;;;;;;;13369004;21;20343;-81
2024/04/15 20:11:26;;;;;;;12.07;6.17;;;;;;;;;;13369482;21;20384;-78
2024/04/15 20:16:33;;;;;;;13.43;6.63;;;;;;;;;;13367504;21;20443;-81
2024/04/15 20:21:37;;;;;;;12.47;6.70;;;;;;;;;;13367806;21;20351;-80
2024/04/15 20:26:41;;;;;;;12.93;6.40;;;;;;;;;;13365653;21;20343;-80
2024/04/15 20:31:48;;;;;;;15.50;6.53;;;;;;;;;;13370356;21;20380;-82
2024/04/15 20:36:52;;;;;;;14.05;6.72;;;;;;;;;;13369188;22;20918;-80
2024/04/15 20:41:56;;;;;;;11.63;5.90;;;;;;;;;;13362029;21;20444;-81
2024/04/15 20:47:03;;;;;;;10.13;6.00;;;;;;;;;;13367845;21;21006;-81
2024/04/15 20:52:07;;;;;;;13.07;6.10;;;;;;;;;;13370860;21;20418;-82
2024/04/15 20:57:11;;;;;;;11.75;6.35;;;;;;;;;;13377772;21;20372;-81
2024/04/15 21:02:18;;;;;;;10.95;6.70;;;;;;;;;;13385469;22;20439;-80
2024/04/15 21:07:22;;;;;;;12.10;6.68;;;;;;;;;;13408838;22;20401;-81
2024/04/15 21:12:26;;;;;;;10.60;6.85;;;;;;;;;;13372052;21;20387;-81
2024/04/15 21:17:33;;;;;;;11.73;6.97;;;;;;;;;;13372463;21;20482;-81
2024/04/15 21:22:38;;;;;;;11.70;6.73;;;;;;;;;;13373667;21;20940;-81
2024/04/15 21:27:42;;;;;;;12.75;6.95;;;;;;;;;;13376142;21;20443;-81
2024/04/15 21:32:48;;;;;;;13.13;7.50;;;;;;;;;;13378069;21;20454;-81
2024/04/15 21:37:52;;;;;;;11.45;6.88;;;;;;;;;;13374756;21;20947;-81
2024/04/15 21:42:56;;;;;;;13.80;7.53;;;;;;;;;;13372923;21;20943;-81
2024/04/15 21:48:02;;;;;;;12.85;7.18;;;;;;;;;;13376060;21;20383;-82
2024/04/15 21:53:06;;;;;;;11.57;7.35;;;;;;;;;;13373281;21;20380;-82
2024/04/15 21:58:10;;;;;;;12.85;7.10;;;;;;;;;;13374773;21;20717;-81
2024/04/15 22:03:17;;;;;;;13.52;7.15;;;;;;;;;;13371437;22;20383;-81
2024/04/15 22:08:23;;;;;;;10.23;7.10;;;;;;;;;;13377072;22;20395;-81
2024/04/15 22:13:27;;;;;;;13.63;7.43;;;;;;;;;;13373086;21;20476;-81
2024/04/15 22:18:34;;;;;;;11.75;7.70;;;;;;;;;;13374803;21;20477;-81
2024/04/15 22:23:38;;;;;;;11.27;7.18;;;;;;;;;;13376247;21;20432;-80
2024/04/15 22:28:41;;;;;;;11.75;7.32;;;;;;;;;;13382929;22;20919;-80
2024/04/15 22:33:48;;;;;;;12.18;7.18;;;;;;;;;;13382972;22;20947;-81
2024/04/15 22:38:52;;;;;;;15.23;7.53;;;;;;;;;;13384976;22;20421;-81
2024/04/15 22:43:56;;;;;;;14.90;7.20;;;;;;;;;;13382653;22;20374;-81
2024/04/15 22:49:03;;;;;;;12.82;7.78;;;;;;;;;;13380785;22;20453;-82
2024/04/15 22:54:06;;;;;;;12.95;7.72;;;;;;;;;;13382845;22;20383;-81
2024/04/15 22:59:10;;;;;;;10.68;6.85;;;;;;;;;;13383760;22;20445;-81
2024/04/15 23:04:17;;;;;;;12.50;7.38;;;;;;;;;;13382994;22;20374;-81
2024/04/15 23:09:21;;;;;;;12.00;7.25;;;;;;;;;;13387730;22;20327;-81
2024/04/15 23:14:25;;;;;;;13.15;7.60;;;;;;;;;;13384482;22;20360;-81
2024/04/15 23:19:31;;;;;;;14.48;7.35;;;;;;;;;;13384744;22;20426;-81
2024/04/15 23:24:35;;;;;;;10.43;7.75;;;;;;;;;;13388139;22;20371;-81
2024/04/15 23:29:39;;;;;;;13.60;8.27;;;;;;;;;;13387965;22;20331;-81
2024/04/15 23:34:46;;;;;;;15.02;8.25;;;;;;;;;;13388206;22;20343;-81
2024/04/15 23:39:49;;;;;;;12.47;8.93;;;;;;;;;;13389118;22;20443;-81
2024/04/15 23:44:53;;;;;;;15.23;9.17;;;;;;;;;;13387450;22;20408;-81
2024/04/15 23:50:00;;;;;;;16.60;9.23;;;;;;;;;;13381701;22;20387;-82
2024/04/15 23:55:04;;;;;;;15.13;9.37;;;;;;;;;;13386313;22;20439;-81
